sensor_id;sensor_type;location;lat;lon;timestamp;temperature;humidity
11093;DHT22;5600;50.864;6.102;2023-09-19T00:00:57;16.10;99.90
11093;DHT22;5600;50.864;6.102;2023-09-19T00:10:03;16.20;99.90
11093;DHT22;5600;50.864;6.102;2023-09-19T00:16:11;16.10;99.90
11093;DHT22;5600;50.864;6.102;2023-09-19T00:28:18;16.20;99.90
11093;DHT22;5600;50.864;6.102;2023-09-19T00:40:28;16.20;99.90
11093;DHT22;5600;50.864;6.102;2023-09-19T00:49:37;16.20;99.90
11093;DHT22;5600;50.864;6.102;2023-09-19T01:01:44;15.90;99.90
11093;DHT22;5600;50.864;6.102;2023-09-19T01:04:47;16.00;99.90
11093;DHT22;5600;50.864;6.102;2023-09-19T01:10:53;15.90;99.90
11093;DHT22;5600;50.864;6.102;2023-09-19T01:17:48;15.80;99.90
11093;DHT22;5600;50.864;6.102;2023-09-19T01:21:05;15.80;99.90
11093;DHT22;5600;50.864;6.102;2023-09-19T01:24:34;15.70;99.90
11093;DHT22;5600;50.864;6.102;2023-09-19T01:31:02;15.70;99.90
11093;DHT22;5600;50.864;6.102;2023-09-19T01:40:14;15.50;99.90
11093;DHT22;5600;50.864;6.102;2023-09-19T01:43:30;15.50;99.90
11093;DHT22;5600;50.864;6.102;2023-09-19T01:46:35;15.50;99.90
11093;DHT22;5600;50.864;6.102;2023-09-19T01:49:50;15.40;99.90
11093;DHT22;5600;50.864;6.102;2023-09-19T01:52:57;15.40;99.90
11093;DHT22;5600;50.864;6.102;2023-09-19T01:56:01;15.40;99.90
11093;DHT22;5600;50.864;6.102;2023-09-19T01:59:10;15.30;99.90
11093;DHT22;5600;50.864;6.102;2023-09-19T02:05:22;15.30;99.90
11093;DHT22;5600;50.864;6.102;2023-09-19T02:08:26;15.30;99.90
11093;DHT22;5600;50.864;6.102;2023-09-19T02:14:27;15.10;99.90
11093;DHT22;5600;50.864;6.102;2023-09-19T02:23:33;15.20;99.90
11093;DHT22;5600;50.864;6.102;2023-09-19T02:32:38;15.20;99.90
11093;DHT22;5600;50.864;6.102;2023-09-19T02:38:40;15.10;99.90
11093;DHT22;5600;50.864;6.102;2023-09-19T02:44:42;15.10;99.90
11093;DHT22;5600;50.864;6.102;2023-09-19T02:47:43;15.10;99.90
11093;DHT22;5600;50.864;6.102;2023-09-19T02:50:45;15.10;99.90
11093;DHT22;5600;50.864;6.102;2023-09-19T03:02:54;15.10;99.90
11093;DHT22;5600;50.864;6.102;2023-09-19T03:21:08;14.90;99.90
11093;DHT22;5600;50.864;6.102;2023-09-19T03:27:10;14.80;99.90
11093;DHT22;5600;50.864;6.102;2023-09-19T03:33:15;14.90;99.90
11093;DHT22;5600;50.864;6.102;2023-09-19T03:45:27;14.80;99.90
11093;DHT22;5600;50.864;6.102;2023-09-19T03:51:31;14.70;99.90
11093;DHT22;5600;50.864;6.102;2023-09-19T03:57:33;14.70;99.90
11093;DHT22;5600;50.864;6.102;2023-09-19T04:06:54;16.30;99.90
11093;DHT22;5600;50.864;6.102;2023-09-19T04:12:56;14.60;99.90
11093;DHT22;5600;50.864;6.102;2023-09-19T04:18:58;14.60;99.90
11093;DHT22;5600;50.864;6.102;2023-09-19T04:34:06;14.50;99.90
11093;DHT22;5600;50.864;6.102;2023-09-19T04:58:22;14.60;99.90
11093;DHT22;5600;50.864;6.102;2023-09-19T05:16:29;14.60;99.90
11093;DHT22;5600;50.864;6.102;2023-09-19T05:25:37;14.60;99.90
11093;DHT22;5600;50.864;6.102;2023-09-19T05:31:38;14.60;99.90
11093;DHT22;5600;50.864;6.102;2023-09-19T05:40:45;14.50;99.90
11093;DHT22;5600;50.864;6.102;2023-09-19T05:52:52;16.10;99.90
11093;DHT22;5600;50.864;6.102;2023-09-19T05:55:53;14.50;99.90
11093;DHT22;5600;50.864;6.102;2023-09-19T06:14:03;14.60;99.90
11093;DHT22;5600;50.864;6.102;2023-09-19T06:17:04;14.60;99.90
11093;DHT22;5600;50.864;6.102;2023-09-19T06:20:06;14.70;99.90
11093;DHT22;5600;50.864;6.102;2023-09-19T06:23:13;14.80;99.90
11093;DHT22;5600;50.864;6.102;2023-09-19T06:26:15;14.80;99.90
11093;DHT22;5600;50.864;6.102;2023-09-19T06:32:17;14.90;99.90
11093;DHT22;5600;50.864;6.102;2023-09-19T07:05:39;15.10;99.90
11093;DHT22;5600;50.864;6.102;2023-09-19T07:11:41;15.20;99.90
11093;DHT22;5600;50.864;6.102;2023-09-19T07:17:45;15.30;99.90
11093;DHT22;5600;50.864;6.102;2023-09-19T07:20:46;15.30;99.90
11093;DHT22;5600;50.864;6.102;2023-09-19T07:26:51;15.50;99.90
11093;DHT22;5600;50.864;6.102;2023-09-19T07:51:05;16.10;99.90
11093;DHT22;5600;50.864;6.102;2023-09-19T08:00:11;16.50;99.90
11093;DHT22;5600;50.864;6.102;2023-09-19T08:33:41;17.50;99.90
11093;DHT22;5600;50.864;6.102;2023-09-19T08:42:51;17.70;99.90
11093;DHT22;5600;50.864;6.102;2023-09-19T08:46:11;17.80;99.90
11093;DHT22;5600;50.864;6.102;2023-09-19T08:49:39;17.80;99.90
11093;DHT22;5600;50.864;6.102;2023-09-19T08:52:43;17.90;99.90
11093;DHT22;5600;50.864;6.102;2023-09-19T08:55:51;18.00;99.90
11093;DHT22;5600;50.864;6.102;2023-09-19T08:58:57;17.90;99.90
11093;DHT22;5600;50.864;6.102;2023-09-19T09:05:04;18.10;99.90
11093;DHT22;5600;50.864;6.102;2023-09-19T09:14:09;17.90;99.90
11093;DHT22;5600;50.864;6.102;2023-09-19T09:20:19;17.90;99.90
11093;DHT22;5600;50.864;6.102;2023-09-19T09:26:40;18.00;99.90
11093;DHT22;5600;50.864;6.102;2023-09-19T09:29:46;18.00;99.90
11093;DHT22;5600;50.864;6.102;2023-09-19T09:33:08;18.00;99.90
11093;DHT22;5600;50.864;6.102;2023-09-19T09:36:14;17.90;99.90
11093;DHT22;5600;50.864;6.102;2023-09-19T09:39:31;17.80;99.90
11093;DHT22;5600;50.864;6.102;2023-09-19T09:42:36;17.90;99.90
11093;DHT22;5600;50.864;6.102;2023-09-19T09:45:39;17.90;99.90
11093;DHT22;5600;50.864;6.102;2023-09-19T09:49:04;17.90;99.90
11093;DHT22;5600;50.864;6.102;2023-09-19T09:52:29;17.90;99.90
11093;DHT22;5600;50.864;6.102;2023-09-19T09:56:05;18.10;99.90
11093;DHT22;5600;50.864;6.102;2023-09-19T10:02:20;18.20;99.90
11093;DHT22;5600;50.864;6.102;2023-09-19T10:14:37;18.60;99.90
11093;DHT22;5600;50.864;6.102;2023-09-19T10:17:42;18.40;99.90
11093;DHT22;5600;50.864;6.102;2023-09-19T10:20:47;18.20;99.90
11093;DHT22;5600;50.864;6.102;2023-09-19T10:23:53;18.20;99.90
11093;DHT22;5600;50.864;6.102;2023-09-19T10:30:01;18.30;99.90
11093;DHT22;5600;50.864;6.102;2023-09-19T10:33:05;18.30;99.90
11093;DHT22;5600;50.864;6.102;2023-09-19T10:39:16;18.20;99.90
11093;DHT22;5600;50.864;6.102;2023-09-19T10:42:20;18.10;99.90
11093;DHT22;5600;50.864;6.102;2023-09-19T10:51:31;18.20;99.90
11093;DHT22;5600;50.864;6.102;2023-09-19T10:54:35;18.10;99.90
11093;DHT22;5600;50.864;6.102;2023-09-19T10:57:45;18.30;99.90
11093;DHT22;5600;50.864;6.102;2023-09-19T11:00:54;18.40;99.90
11093;DHT22;5600;50.864;6.102;2023-09-19T11:04:26;18.50;99.90
11093;DHT22;5600;50.864;6.102;2023-09-19T11:07:27;18.50;99.90
11093;DHT22;5600;50.864;6.102;2023-09-19T11:10:49;18.60;99.90
11093;DHT22;5600;50.864;6.102;2023-09-19T11:14:14;18.60;99.90
11093;DHT22;5600;50.864;6.102;2023-09-19T11:26:41;19.00;99.90
11093;DHT22;5600;50.864;6.102;2023-09-19T11:30:25;19.10;99.90
11093;DHT22;5600;50.864;6.102;2023-09-19T11:33:30;19.20;99.90
11093;DHT22;5600;50.864;6.102;2023-09-19T11:39:39;19.50;99.90
11093;DHT22;5600;50.864;6.102;2023-09-19T11:42:47;19.80;99.90
11093;DHT22;5600;50.864;6.102;2023-09-19T11:49:06;19.90;99.90
11093;DHT22;5600;50.864;6.102;2023-09-19T11:52:21;20.00;99.90
11093;DHT22;5600;50.864;6.102;2023-09-19T11:55:25;20.10;99.90
11093;DHT22;5600;50.864;6.102;2023-09-19T12:04:40;20.30;99.90
11093;DHT22;5600;50.864;6.102;2023-09-19T12:10:49;20.20;99.90
11093;DHT22;5600;50.864;6.102;2023-09-19T12:13:51;20.10;99.90
11093;DHT22;5600;50.864;6.102;2023-09-19T12:16:54;20.30;99.90
11093;DHT22;5600;50.864;6.102;2023-09-19T12:23:13;20.50;99.90
11093;DHT22;5600;50.864;6.102;2023-09-19T12:29:19;20.20;99.90
11093;DHT22;5600;50.864;6.102;2023-09-19T12:32:34;20.10;99.90
11093;DHT22;5600;50.864;6.102;2023-09-19T12:35:36;20.30;99.90
11093;DHT22;5600;50.864;6.102;2023-09-19T12:41:38;20.50;99.90
11093;DHT22;5600;50.864;6.102;2023-09-19T12:44:44;20.60;99.90
11093;DHT22;5600;50.864;6.102;2023-09-19T12:48:17;20.60;99.90
11093;DHT22;5600;50.864;6.102;2023-09-19T13:00:44;20.70;99.90
11093;DHT22;5600;50.864;6.102;2023-09-19T13:03:45;20.60;99.90
11093;DHT22;5600;50.864;6.102;2023-09-19T13:06:47;20.70;99.90
11093;DHT22;5600;50.864;6.102;2023-09-19T13:10:05;20.80;99.90
11093;DHT22;5600;50.864;6.102;2023-09-19T13:13:23;20.90;99.90
11093;DHT22;5600;50.864;6.102;2023-09-19T13:16:28;20.80;99.90
11093;DHT22;5600;50.864;6.102;2023-09-19T13:19:49;20.70;99.90
11093;DHT22;5600;50.864;6.102;2023-09-19T13:28:57;20.40;99.90
11093;DHT22;5600;50.864;6.102;2023-09-19T13:47:05;19.80;99.90
11093;DHT22;5600;50.864;6.102;2023-09-19T14:02:15;20.30;99.90
11093;DHT22;5600;50.864;6.102;2023-09-19T14:17:26;20.70;99.90
11093;DHT22;5600;50.864;6.102;2023-09-19T14:23:35;20.40;99.90
11093;DHT22;5600;50.864;6.102;2023-09-19T14:35:41;19.90;99.90
11093;DHT22;5600;50.864;6.102;2023-09-19T14:47:50;20.10;99.90
11093;DHT22;5600;50.864;6.102;2023-09-19T15:06:11;19.90;99.90
11093;DHT22;5600;50.864;6.102;2023-09-19T15:27:28;19.90;99.90
11093;DHT22;5600;50.864;6.102;2023-09-19T15:30:31;19.90;99.90
11093;DHT22;5600;50.864;6.102;2023-09-19T15:33:32;19.80;99.90
11093;DHT22;5600;50.864;6.102;2023-09-19T16:03:50;19.70;99.90
11093;DHT22;5600;50.864;6.102;2023-09-19T16:15:57;19.50;99.90
11093;DHT22;5600;50.864;6.102;2023-09-19T16:19:00;19.50;99.90
11093;DHT22;5600;50.864;6.102;2023-09-19T16:31:08;19.20;99.90
11093;DHT22;5600;50.864;6.102;2023-09-19T16:37:11;19.10;99.90
11093;DHT22;5600;50.864;6.102;2023-09-19T16:43:15;19.00;99.90
11093;DHT22;5600;50.864;6.102;2023-09-19T16:46:17;19.00;99.90
11093;DHT22;5600;50.864;6.102;2023-09-19T16:49:18;19.00;99.90
11093;DHT22;5600;50.864;6.102;2023-09-19T16:55:20;18.80;99.90
11093;DHT22;5600;50.864;6.102;2023-09-19T17:10:31;18.70;99.90
11093;DHT22;5600;50.864;6.102;2023-09-19T17:22:39;18.50;99.90
11093;DHT22;5600;50.864;6.102;2023-09-19T17:28:41;18.60;99.90
11093;DHT22;5600;50.864;6.102;2023-09-19T17:34:46;18.50;99.90
11093;DHT22;5600;50.864;6.102;2023-09-19T17:43:55;18.40;99.90
11093;DHT22;5600;50.864;6.102;2023-09-19T17:49:57;18.40;99.90
11093;DHT22;5600;50.864;6.102;2023-09-19T17:56:00;18.40;99.90
11093;DHT22;5600;50.864;6.102;2023-09-19T18:11:14;18.30;99.90
11093;DHT22;5600;50.864;6.102;2023-09-19T18:35:31;18.40;99.90
11093;DHT22;5600;50.864;6.102;2023-09-19T18:41:33;18.40;99.90
11093;DHT22;5600;50.864;6.102;2023-09-19T18:47:39;18.40;99.90
11093;DHT22;5600;50.864;6.102;2023-09-19T18:53:42;18.30;99.90
11093;DHT22;5600;50.864;6.102;2023-09-19T19:21:01;18.30;99.90
11093;DHT22;5600;50.864;6.102;2023-09-19T19:24:05;18.30;99.90
11093;DHT22;5600;50.864;6.102;2023-09-19T19:30:07;18.30;99.90
11093;DHT22;5600;50.864;6.102;2023-09-19T19:36:11;18.30;99.90
11093;DHT22;5600;50.864;6.102;2023-09-19T19:39:12;18.40;99.90
11093;DHT22;5600;50.864;6.102;2023-09-19T19:48:15;18.30;99.90
11093;DHT22;5600;50.864;6.102;2023-09-19T19:51:17;18.30;99.90
11093;DHT22;5600;50.864;6.102;2023-09-19T20:00:21;18.10;99.90
11093;DHT22;5600;50.864;6.102;2023-09-19T20:06:27;18.20;99.90
11093;DHT22;5600;50.864;6.102;2023-09-19T20:12:29;18.20;99.90
11093;DHT22;5600;50.864;6.102;2023-09-19T20:18:33;18.20;99.90
11093;DHT22;5600;50.864;6.102;2023-09-19T20:27:42;18.20;99.90
11093;DHT22;5600;50.864;6.102;2023-09-19T20:33:44;18.10;99.90
11093;DHT22;5600;50.864;6.102;2023-09-19T20:42:47;18.10;99.90
11093;DHT22;5600;50.864;6.102;2023-09-19T20:45:50;18.10;99.90
11093;DHT22;5600;50.864;6.102;2023-09-19T20:57:58;18.10;99.90
11093;DHT22;5600;50.864;6.102;2023-09-19T21:01:00;18.10;99.90
11093;DHT22;5600;50.864;6.102;2023-09-19T21:10:06;18.10;99.90
11093;DHT22;5600;50.864;6.102;2023-09-19T21:16:10;18.00;99.90
11093;DHT22;5600;50.864;6.102;2023-09-19T21:19:15;18.10;99.90
11093;DHT22;5600;50.864;6.102;2023-09-19T21:28:19;18.00;99.90
11093;DHT22;5600;50.864;6.102;2023-09-19T21:31:20;18.00;99.90
11093;DHT22;5600;50.864;6.102;2023-09-19T21:34:21;18.00;99.90
11093;DHT22;5600;50.864;6.102;2023-09-19T21:40:24;18.00;99.90
11093;DHT22;5600;50.864;6.102;2023-09-19T21:55:32;18.00;99.90
11093;DHT22;5600;50.864;6.102;2023-09-19T21:58:34;18.00;99.90
11093;DHT22;5600;50.864;6.102;2023-09-19T22:10:46;18.00;99.90
11093;DHT22;5600;50.864;6.102;2023-09-19T22:13:48;18.10;99.90
11093;DHT22;5600;50.864;6.102;2023-09-19T22:16:48;18.10;99.90
11093;DHT22;5600;50.864;6.102;2023-09-19T22:22:54;18.10;99.90
11093;DHT22;5600;50.864;6.102;2023-09-19T22:26:01;18.10;99.90
11093;DHT22;5600;50.864;6.102;2023-09-19T22:29:03;18.10;99.90
11093;DHT22;5600;50.864;6.102;2023-09-19T22:35:07;18.10;99.90
11093;DHT22;5600;50.864;6.102;2023-09-19T22:50:15;18.10;99.90
11093;DHT22;5600;50.864;6.102;2023-09-19T23:05:34;18.20;99.90
11093;DHT22;5600;50.864;6.102;2023-09-19T23:08:38;18.20;99.90
11093;DHT22;5600;50.864;6.102;2023-09-19T23:11:40;18.20;99.90
11093;DHT22;5600;50.864;6.102;2023-09-19T23:14:41;18.10;99.90
11093;DHT22;5600;50.864;6.102;2023-09-19T23:17:45;18.10;99.90
11093;DHT22;5600;50.864;6.102;2023-09-19T23:29:50;18.10;99.90
11093;DHT22;5600;50.864;6.102;2023-09-19T23:41:58;18.20;99.90
11093;DHT22;5600;50.864;6.102;2023-09-19T23:44:59;18.20;99.90
11093;DHT22;5600;50.864;6.102;2023-09-19T23:54:05;18.10;99.90
